sensor_id;sensor_type;location;lat;lon;timestamp;P1;durP1;ratioP1;P2;durP2;ratioP2
1204;SDS011;592;48.764;9.174;2023-03-22T00:01:11;6.67;;;4.03;;
1204;SDS011;592;48.764;9.174;2023-03-22T00:03:39;6.10;;;3.63;;
1204;SDS011;592;48.764;9.174;2023-03-22T00:06:06;6.77;;;3.77;;
1204;SDS011;592;48.764;9.174;2023-03-22T00:08:34;9.17;;;4.00;;
1204;SDS011;592;48.764;9.174;2023-03-22T00:11:00;6.73;;;3.30;;
1204;SDS011;592;48.764;9.174;2023-03-22T00:13:27;9.30;;;4.00;;
1204;SDS011;592;48.764;9.174;2023-03-22T00:15:54;5.67;;;3.77;;
1204;SDS011;592;48.764;9.174;2023-03-22T00:18:23;8.07;;;3.50;;
1204;SDS011;592;48.764;9.174;2023-03-22T00:20:50;8.77;;;3.30;;
1204;SDS011;592;48.764;9.174;2023-03-22T00:23:17;6.90;;;3.33;;
1204;SDS011;592;48.764;9.174;2023-03-22T00:25:45;7.23;;;3.70;;
1204;SDS011;592;48.764;9.174;2023-03-22T00:28:13;6.40;;;3.13;;
1204;SDS011;592;48.764;9.174;2023-03-22T00:30:41;9.30;;;3.23;;
1204;SDS011;592;48.764;9.174;2023-03-22T00:33:08;5.47;;;3.60;;
1204;SDS011;592;48.764;9.174;2023-03-22T00:35:36;6.10;;;3.50;;
1204;SDS011;592;48.764;9.174;2023-03-22T00:38:03;6.07;;;3.40;;
1204;SDS011;592;48.764;9.174;2023-03-22T00:40:38;4.87;;;3.20;;
1204;SDS011;592;48.764;9.174;2023-03-22T00:43:05;6.27;;;4.13;;
1204;SDS011;592;48.764;9.174;2023-03-22T00:45:32;5.57;;;3.40;;
1204;SDS011;592;48.764;9.174;2023-03-22T00:48:00;5.60;;;3.80;;
1204;SDS011;592;48.764;9.174;2023-03-22T00:50:27;5.80;;;3.80;;
1204;SDS011;592;48.764;9.174;2023-03-22T00:52:55;5.53;;;3.50;;
1204;SDS011;592;48.764;9.174;2023-03-22T00:55:21;7.23;;;4.00;;
1204;SDS011;592;48.764;9.174;2023-03-22T00:57:48;6.60;;;3.87;;
1204;SDS011;592;48.764;9.174;2023-03-22T01:00:15;7.33;;;3.47;;
1204;SDS011;592;48.764;9.174;2023-03-22T01:02:42;6.30;;;4.10;;
1204;SDS011;592;48.764;9.174;2023-03-22T01:05:09;5.93;;;3.80;;
1204;SDS011;592;48.764;9.174;2023-03-22T01:07:39;6.27;;;3.73;;
1204;SDS011;592;48.764;9.174;2023-03-22T01:10:08;6.90;;;4.50;;
1204;SDS011;592;48.764;9.174;2023-03-22T01:12:36;9.00;;;3.97;;
1204;SDS011;592;48.764;9.174;2023-03-22T01:15:03;6.50;;;3.87;;
1204;SDS011;592;48.764;9.174;2023-03-22T01:17:31;6.20;;;4.13;;
1204;SDS011;592;48.764;9.174;2023-03-22T01:19:58;7.90;;;4.60;;
1204;SDS011;592;48.764;9.174;2023-03-22T01:22:24;7.93;;;4.20;;
1204;SDS011;592;48.764;9.174;2023-03-22T01:24:51;6.80;;;4.20;;
1204;SDS011;592;48.764;9.174;2023-03-22T01:27:19;6.80;;;4.20;;
1204;SDS011;592;48.764;9.174;2023-03-22T01:29:46;7.73;;;4.73;;
1204;SDS011;592;48.764;9.174;2023-03-22T01:32:13;8.90;;;5.13;;
1204;SDS011;592;48.764;9.174;2023-03-22T01:34:39;6.50;;;4.17;;
1204;SDS011;592;48.764;9.174;2023-03-22T01:37:06;6.70;;;3.80;;
1204;SDS011;592;48.764;9.174;2023-03-22T01:39:33;6.90;;;4.40;;
1204;SDS011;592;48.764;9.174;2023-03-22T01:42:00;8.23;;;4.50;;
1204;SDS011;592;48.764;9.174;2023-03-22T01:44:28;7.40;;;4.40;;
1204;SDS011;592;48.764;9.174;2023-03-22T01:46:55;6.40;;;4.00;;
1204;SDS011;592;48.764;9.174;2023-03-22T01:49:23;8.17;;;4.20;;
1204;SDS011;592;48.764;9.174;2023-03-22T01:51:54;11.30;;;4.83;;
1204;SDS011;592;48.764;9.174;2023-03-22T01:54:24;12.00;;;4.57;;
1204;SDS011;592;48.764;9.174;2023-03-22T01:56:55;8.03;;;4.73;;
1204;SDS011;592;48.764;9.174;2023-03-22T01:59:22;7.90;;;4.33;;
1204;SDS011;592;48.764;9.174;2023-03-22T02:01:51;7.60;;;4.60;;
1204;SDS011;592;48.764;9.174;2023-03-22T02:04:20;7.73;;;4.10;;
1204;SDS011;592;48.764;9.174;2023-03-22T02:06:48;5.40;;;3.40;;
1204;SDS011;592;48.764;9.174;2023-03-22T02:09:18;8.13;;;4.37;;
1204;SDS011;592;48.764;9.174;2023-03-22T02:11:48;6.70;;;3.93;;
1204;SDS011;592;48.764;9.174;2023-03-22T02:14:30;6.73;;;3.70;;
1204;SDS011;592;48.764;9.174;2023-03-22T02:17:21;6.73;;;3.73;;
1204;SDS011;592;48.764;9.174;2023-03-22T02:22:56;7.70;;;4.10;;
1204;SDS011;592;48.764;9.174;2023-03-22T02:25:51;6.83;;;4.43;;
1204;SDS011;592;48.764;9.174;2023-03-22T02:28:59;7.03;;;4.07;;
1204;SDS011;592;48.764;9.174;2023-03-22T02:34:51;6.87;;;4.00;;
1204;SDS011;592;48.764;9.174;2023-03-22T02:37:49;7.00;;;3.93;;
1204;SDS011;592;48.764;9.174;2023-03-22T02:40:40;6.27;;;4.00;;
1204;SDS011;592;48.764;9.174;2023-03-22T02:43:17;7.43;;;4.00;;
1204;SDS011;592;48.764;9.174;2023-03-22T02:45:55;6.27;;;3.70;;
1204;SDS011;592;48.764;9.174;2023-03-22T02:48:29;7.70;;;4.13;;
1204;SDS011;592;48.764;9.174;2023-03-22T02:51:00;6.17;;;4.30;;
1204;SDS011;592;48.764;9.174;2023-03-22T02:53:31;5.50;;;3.50;;
1204;SDS011;592;48.764;9.174;2023-03-22T02:56:06;7.33;;;4.30;;
1204;SDS011;592;48.764;9.174;2023-03-22T02:58:38;6.00;;;3.70;;
1204;SDS011;592;48.764;9.174;2023-03-22T03:01:10;7.00;;;4.27;;
1204;SDS011;592;48.764;9.174;2023-03-22T03:03:43;7.27;;;3.33;;
1204;SDS011;592;48.764;9.174;2023-03-22T03:06:14;5.30;;;4.00;;
1204;SDS011;592;48.764;9.174;2023-03-22T03:08:44;7.40;;;4.17;;
1204;SDS011;592;48.764;9.174;2023-03-22T03:11:16;8.30;;;4.07;;
1204;SDS011;592;48.764;9.174;2023-03-22T03:13:45;5.90;;;3.63;;
1204;SDS011;592;48.764;9.174;2023-03-22T03:16:15;5.63;;;3.53;;
1204;SDS011;592;48.764;9.174;2023-03-22T03:18:46;6.10;;;3.83;;
1204;SDS011;592;48.764;9.174;2023-03-22T03:21:22;6.77;;;4.10;;
1204;SDS011;592;48.764;9.174;2023-03-22T03:23:58;6.10;;;3.97;;
1204;SDS011;592;48.764;9.174;2023-03-22T03:26:40;8.00;;;3.73;;
1204;SDS011;592;48.764;9.174;2023-03-22T03:29:13;6.03;;;4.03;;
1204;SDS011;592;48.764;9.174;2023-03-22T03:31:48;5.83;;;3.67;;
1204;SDS011;592;48.764;9.174;2023-03-22T03:34:20;5.97;;;3.67;;
1204;SDS011;592;48.764;9.174;2023-03-22T03:36:52;6.93;;;3.73;;
1204;SDS011;592;48.764;9.174;2023-03-22T03:39:23;6.70;;;4.20;;
1204;SDS011;592;48.764;9.174;2023-03-22T03:41:56;7.23;;;3.60;;
1204;SDS011;592;48.764;9.174;2023-03-22T03:44:24;7.87;;;3.83;;
1204;SDS011;592;48.764;9.174;2023-03-22T03:46:52;5.87;;;3.57;;
1204;SDS011;592;48.764;9.174;2023-03-22T03:49:20;5.33;;;3.60;;
1204;SDS011;592;48.764;9.174;2023-03-22T03:51:49;9.00;;;3.83;;
1204;SDS011;592;48.764;9.174;2023-03-22T03:54:18;6.40;;;4.07;;
1204;SDS011;592;48.764;9.174;2023-03-22T03:56:45;8.60;;;3.63;;
1204;SDS011;592;48.764;9.174;2023-03-22T03:59:14;5.23;;;3.40;;
1204;SDS011;592;48.764;9.174;2023-03-22T04:01:41;5.73;;;3.70;;
1204;SDS011;592;48.764;9.174;2023-03-22T04:04:13;7.30;;;3.97;;
1204;SDS011;592;48.764;9.174;2023-03-22T04:06:40;6.50;;;4.03;;
1204;SDS011;592;48.764;9.174;2023-03-22T04:09:07;7.13;;;4.43;;
1204;SDS011;592;48.764;9.174;2023-03-22T04:11:34;6.10;;;3.47;;
1204;SDS011;592;48.764;9.174;2023-03-22T04:14:01;6.27;;;3.80;;
1204;SDS011;592;48.764;9.174;2023-03-22T04:16:29;8.37;;;4.43;;
1204;SDS011;592;48.764;9.174;2023-03-22T04:18:55;5.80;;;3.60;;
1204;SDS011;592;48.764;9.174;2023-03-22T04:21:22;7.20;;;4.00;;
1204;SDS011;592;48.764;9.174;2023-03-22T04:23:49;6.20;;;4.23;;
1204;SDS011;592;48.764;9.174;2023-03-22T04:26:16;5.40;;;3.50;;
1204;SDS011;592;48.764;9.174;2023-03-22T04:28:42;6.63;;;3.80;;
1204;SDS011;592;48.764;9.174;2023-03-22T04:31:09;6.07;;;3.80;;
1204;SDS011;592;48.764;9.174;2023-03-22T04:33:37;5.40;;;3.60;;
1204;SDS011;592;48.764;9.174;2023-03-22T04:36:04;5.70;;;3.80;;
1204;SDS011;592;48.764;9.174;2023-03-22T04:38:34;6.37;;;3.90;;
1204;SDS011;592;48.764;9.174;2023-03-22T04:41:01;6.80;;;3.70;;
1204;SDS011;592;48.764;9.174;2023-03-22T04:43:29;6.40;;;3.83;;
1204;SDS011;592;48.764;9.174;2023-03-22T04:45:59;8.90;;;3.60;;
1204;SDS011;592;48.764;9.174;2023-03-22T04:48:26;5.97;;;3.20;;
1204;SDS011;592;48.764;9.174;2023-03-22T04:50:55;5.50;;;3.40;;
1204;SDS011;592;48.764;9.174;2023-03-22T04:53:21;6.13;;;3.33;;
1204;SDS011;592;48.764;9.174;2023-03-22T04:55:51;5.77;;;3.83;;
1204;SDS011;592;48.764;9.174;2023-03-22T04:58:20;5.70;;;3.63;;
1204;SDS011;592;48.764;9.174;2023-03-22T05:00:48;7.10;;;3.90;;
1204;SDS011;592;48.764;9.174;2023-03-22T05:03:16;6.80;;;3.90;;
1204;SDS011;592;48.764;9.174;2023-03-22T05:05:48;10.40;;;3.90;;
1204;SDS011;592;48.764;9.174;2023-03-22T05:08:17;6.50;;;4.17;;
1204;SDS011;592;48.764;9.174;2023-03-22T05:10:44;7.07;;;4.17;;
1204;SDS011;592;48.764;9.174;2023-03-22T05:13:11;7.80;;;4.53;;
1204;SDS011;592;48.764;9.174;2023-03-22T05:15:38;8.00;;;4.30;;
1204;SDS011;592;48.764;9.174;2023-03-22T05:18:05;8.17;;;3.73;;
1204;SDS011;592;48.764;9.174;2023-03-22T05:20:32;10.00;;;4.20;;
1204;SDS011;592;48.764;9.174;2023-03-22T05:23:00;7.00;;;3.73;;
1204;SDS011;592;48.764;9.174;2023-03-22T05:25:29;7.40;;;4.20;;
1204;SDS011;592;48.764;9.174;2023-03-22T05:27:56;6.93;;;3.60;;
1204;SDS011;592;48.764;9.174;2023-03-22T05:30:25;7.63;;;3.30;;
1204;SDS011;592;48.764;9.174;2023-03-22T05:32:55;9.40;;;4.10;;
1204;SDS011;592;48.764;9.174;2023-03-22T05:35:23;6.10;;;4.17;;
1204;SDS011;592;48.764;9.174;2023-03-22T05:37:50;7.30;;;4.10;;
1204;SDS011;592;48.764;9.174;2023-03-22T05:40:17;6.30;;;4.03;;
1204;SDS011;592;48.764;9.174;2023-03-22T05:42:45;6.47;;;3.80;;
1204;SDS011;592;48.764;9.174;2023-03-22T05:45:12;5.40;;;3.40;;
1204;SDS011;592;48.764;9.174;2023-03-22T05:47:39;8.63;;;3.80;;
1204;SDS011;592;48.764;9.174;2023-03-22T05:50:06;7.00;;;3.53;;
1204;SDS011;592;48.764;9.174;2023-03-22T05:52:35;6.20;;;3.30;;
1204;SDS011;592;48.764;9.174;2023-03-22T05:55:02;5.60;;;3.20;;
1204;SDS011;592;48.764;9.174;2023-03-22T05:57:29;7.60;;;3.60;;
1204;SDS011;592;48.764;9.174;2023-03-22T05:59:57;5.63;;;3.77;;
1204;SDS011;592;48.764;9.174;2023-03-22T06:02:25;7.77;;;4.47;;
1204;SDS011;592;48.764;9.174;2023-03-22T06:04:53;8.63;;;3.87;;
1204;SDS011;592;48.764;9.174;2023-03-22T06:07:19;7.10;;;4.07;;
1204;SDS011;592;48.764;9.174;2023-03-22T06:09:46;8.63;;;3.33;;
1204;SDS011;592;48.764;9.174;2023-03-22T06:12:14;6.03;;;3.70;;
1204;SDS011;592;48.764;9.174;2023-03-22T06:14:41;10.17;;;4.07;;
1204;SDS011;592;48.764;9.174;2023-03-22T06:17:09;8.13;;;3.73;;
1204;SDS011;592;48.764;9.174;2023-03-22T06:19:36;7.73;;;4.13;;
1204;SDS011;592;48.764;9.174;2023-03-22T06:22:02;6.50;;;4.77;;
1204;SDS011;592;48.764;9.174;2023-03-22T06:24:29;6.83;;;3.77;;
1204;SDS011;592;48.764;9.174;2023-03-22T06:26:59;9.57;;;3.60;;
1204;SDS011;592;48.764;9.174;2023-03-22T06:29:31;6.40;;;3.73;;
1204;SDS011;592;48.764;9.174;2023-03-22T06:32:06;7.33;;;3.83;;
1204;SDS011;592;48.764;9.174;2023-03-22T06:34:34;8.30;;;4.63;;
1204;SDS011;592;48.764;9.174;2023-03-22T06:37:01;30.73;;;5.67;;
1204;SDS011;592;48.764;9.174;2023-03-22T06:39:29;13.90;;;5.20;;
1204;SDS011;592;48.764;9.174;2023-03-22T06:41:56;9.90;;;4.33;;
1204;SDS011;592;48.764;9.174;2023-03-22T06:44:22;9.93;;;4.47;;
1204;SDS011;592;48.764;9.174;2023-03-22T06:46:49;7.37;;;3.67;;
1204;SDS011;592;48.764;9.174;2023-03-22T06:49:17;7.43;;;4.07;;
1204;SDS011;592;48.764;9.174;2023-03-22T06:51:45;11.40;;;4.43;;
1204;SDS011;592;48.764;9.174;2023-03-22T06:54:12;10.60;;;3.33;;
1204;SDS011;592;48.764;9.174;2023-03-22T06:56:40;8.17;;;3.70;;
1204;SDS011;592;48.764;9.174;2023-03-22T06:59:07;7.30;;;3.20;;
1204;SDS011;592;48.764;9.174;2023-03-22T07:01:34;4.90;;;3.27;;
1204;SDS011;592;48.764;9.174;2023-03-22T07:04:02;7.60;;;4.30;;
1204;SDS011;592;48.764;9.174;2023-03-22T07:06:30;18.67;;;4.80;;
1204;SDS011;592;48.764;9.174;2023-03-22T07:08:58;7.93;;;3.63;;
1204;SDS011;592;48.764;9.174;2023-03-22T07:11:26;9.00;;;3.70;;
1204;SDS011;592;48.764;9.174;2023-03-22T07:16:35;7.87;;;3.43;;
1204;SDS011;592;48.764;9.174;2023-03-22T07:19:06;6.23;;;3.00;;
1204;SDS011;592;48.764;9.174;2023-03-22T07:21:38;4.80;;;2.77;;
1204;SDS011;592;48.764;9.174;2023-03-22T07:24:05;5.90;;;3.60;;
1204;SDS011;592;48.764;9.174;2023-03-22T07:26:33;5.30;;;3.07;;
1204;SDS011;592;48.764;9.174;2023-03-22T07:29:00;5.10;;;2.83;;
1204;SDS011;592;48.764;9.174;2023-03-22T07:31:26;6.50;;;3.10;;
1204;SDS011;592;48.764;9.174;2023-03-22T07:33:53;6.00;;;2.90;;
1204;SDS011;592;48.764;9.174;2023-03-22T07:36:20;5.13;;;2.57;;
1204;SDS011;592;48.764;9.174;2023-03-22T07:38:50;6.13;;;3.50;;
1204;SDS011;592;48.764;9.174;2023-03-22T07:41:17;8.07;;;3.30;;
1204;SDS011;592;48.764;9.174;2023-03-22T07:43:44;6.53;;;2.63;;
1204;SDS011;592;48.764;9.174;2023-03-22T07:46:11;6.47;;;2.40;;
1204;SDS011;592;48.764;9.174;2023-03-22T07:48:38;6.67;;;3.67;;
1204;SDS011;592;48.764;9.174;2023-03-22T07:51:05;8.20;;;4.17;;
1204;SDS011;592;48.764;9.174;2023-03-22T07:53:32;11.10;;;3.30;;
1204;SDS011;592;48.764;9.174;2023-03-22T07:56:00;5.70;;;2.07;;
1204;SDS011;592;48.764;9.174;2023-03-22T07:58:27;4.00;;;2.33;;
1204;SDS011;592;48.764;9.174;2023-03-22T08:00:53;6.30;;;2.87;;
1204;SDS011;592;48.764;9.174;2023-03-22T08:03:20;3.87;;;2.50;;
1204;SDS011;592;48.764;9.174;2023-03-22T08:05:47;5.00;;;2.40;;
1204;SDS011;592;48.764;9.174;2023-03-22T08:08:15;8.10;;;2.60;;
1204;SDS011;592;48.764;9.174;2023-03-22T08:10:42;5.00;;;2.77;;
1204;SDS011;592;48.764;9.174;2023-03-22T08:13:15;4.03;;;2.33;;
1204;SDS011;592;48.764;9.174;2023-03-22T08:15:41;5.20;;;2.00;;
1204;SDS011;592;48.764;9.174;2023-03-22T08:18:08;5.77;;;2.70;;
1204;SDS011;592;48.764;9.174;2023-03-22T08:20:35;4.77;;;2.60;;
1204;SDS011;592;48.764;9.174;2023-03-22T08:23:02;4.90;;;2.23;;
1204;SDS011;592;48.764;9.174;2023-03-22T08:25:29;7.70;;;2.77;;
1204;SDS011;592;48.764;9.174;2023-03-22T08:27:57;5.87;;;2.60;;
1204;SDS011;592;48.764;9.174;2023-03-22T08:30:25;9.17;;;2.90;;
1204;SDS011;592;48.764;9.174;2023-03-22T08:32:52;4.33;;;2.27;;
1204;SDS011;592;48.764;9.174;2023-03-22T08:35:19;4.10;;;2.30;;
1204;SDS011;592;48.764;9.174;2023-03-22T08:37:45;7.40;;;2.50;;
1204;SDS011;592;48.764;9.174;2023-03-22T08:40:12;5.00;;;2.60;;
1204;SDS011;592;48.764;9.174;2023-03-22T08:42:39;8.43;;;2.80;;
1204;SDS011;592;48.764;9.174;2023-03-22T08:45:07;5.07;;;2.10;;
1204;SDS011;592;48.764;9.174;2023-03-22T08:47:35;5.60;;;2.60;;
1204;SDS011;592;48.764;9.174;2023-03-22T08:50:02;4.47;;;2.20;;
1204;SDS011;592;48.764;9.174;2023-03-22T08:52:30;3.77;;;2.00;;
1204;SDS011;592;48.764;9.174;2023-03-22T08:54:57;4.53;;;2.20;;
1204;SDS011;592;48.764;9.174;2023-03-22T08:57:23;6.23;;;2.30;;
1204;SDS011;592;48.764;9.174;2023-03-22T08:59:51;6.40;;;2.47;;
1204;SDS011;592;48.764;9.174;2023-03-22T09:02:18;5.93;;;1.57;;
1204;SDS011;592;48.764;9.174;2023-03-22T09:04:46;4.67;;;1.80;;
1204;SDS011;592;48.764;9.174;2023-03-22T09:07:13;8.13;;;2.50;;
1204;SDS011;592;48.764;9.174;2023-03-22T09:09:41;4.80;;;2.07;;
1204;SDS011;592;48.764;9.174;2023-03-22T09:12:08;4.57;;;1.77;;
1204;SDS011;592;48.764;9.174;2023-03-22T09:14:35;9.93;;;3.10;;
1204;SDS011;592;48.764;9.174;2023-03-22T09:17:02;3.13;;;1.53;;
1204;SDS011;592;48.764;9.174;2023-03-22T09:19:29;3.87;;;1.50;;
1204;SDS011;592;48.764;9.174;2023-03-22T09:21:57;4.40;;;1.83;;
1204;SDS011;592;48.764;9.174;2023-03-22T09:24:25;3.43;;;1.37;;
1204;SDS011;592;48.764;9.174;2023-03-22T09:26:51;4.10;;;1.77;;
1204;SDS011;592;48.764;9.174;2023-03-22T09:29:19;3.47;;;1.70;;
1204;SDS011;592;48.764;9.174;2023-03-22T09:31:45;4.73;;;1.70;;
1204;SDS011;592;48.764;9.174;2023-03-22T09:34:13;4.33;;;1.80;;
1204;SDS011;592;48.764;9.174;2023-03-22T09:36:40;3.53;;;1.87;;
1204;SDS011;592;48.764;9.174;2023-03-22T09:39:08;11.30;;;1.53;;
1204;SDS011;592;48.764;9.174;2023-03-22T09:41:35;4.63;;;1.77;;
1204;SDS011;592;48.764;9.174;2023-03-22T09:44:05;3.57;;;1.60;;
1204;SDS011;592;48.764;9.174;2023-03-22T09:46:41;3.97;;;1.60;;
1204;SDS011;592;48.764;9.174;2023-03-22T09:49:13;4.57;;;1.70;;
1204;SDS011;592;48.764;9.174;2023-03-22T09:51:44;5.00;;;2.60;;
1204;SDS011;592;48.764;9.174;2023-03-22T09:54:15;6.07;;;1.90;;
1204;SDS011;592;48.764;9.174;2023-03-22T09:56:46;4.70;;;1.70;;
1204;SDS011;592;48.764;9.174;2023-03-22T09:59:16;8.23;;;2.03;;
1204;SDS011;592;48.764;9.174;2023-03-22T10:01:50;34.63;;;3.83;;
1204;SDS011;592;48.764;9.174;2023-03-22T10:04:24;3.63;;;1.33;;
1204;SDS011;592;48.764;9.174;2023-03-22T10:07:21;7.90;;;3.47;;
1204;SDS011;592;48.764;9.174;2023-03-22T10:09:57;5.60;;;2.70;;
1204;SDS011;592;48.764;9.174;2023-03-22T10:12:32;4.90;;;2.03;;
1204;SDS011;592;48.764;9.174;2023-03-22T10:15:08;3.93;;;1.90;;
1204;SDS011;592;48.764;9.174;2023-03-22T10:17:38;5.40;;;2.00;;
1204;SDS011;592;48.764;9.174;2023-03-22T10:20:11;4.80;;;2.10;;
1204;SDS011;592;48.764;9.174;2023-03-22T10:22:48;3.40;;;1.70;;
1204;SDS011;592;48.764;9.174;2023-03-22T10:25:20;6.73;;;2.27;;
1204;SDS011;592;48.764;9.174;2023-03-22T10:27:51;3.30;;;1.50;;
1204;SDS011;592;48.764;9.174;2023-03-22T10:30:19;3.90;;;1.87;;
1204;SDS011;592;48.764;9.174;2023-03-22T10:32:49;6.67;;;1.97;;
1204;SDS011;592;48.764;9.174;2023-03-22T10:35:20;4.80;;;1.97;;
1204;SDS011;592;48.764;9.174;2023-03-22T10:37:48;4.83;;;1.87;;
1204;SDS011;592;48.764;9.174;2023-03-22T10:40:17;5.67;;;2.20;;
1204;SDS011;592;48.764;9.174;2023-03-22T10:42:50;3.80;;;2.20;;
1204;SDS011;592;48.764;9.174;2023-03-22T10:45:19;4.27;;;1.73;;
1204;SDS011;592;48.764;9.174;2023-03-22T10:47:47;4.93;;;2.20;;
1204;SDS011;592;48.764;9.174;2023-03-22T10:50:23;3.53;;;1.70;;
1204;SDS011;592;48.764;9.174;2023-03-22T10:52:54;3.20;;;1.40;;
1204;SDS011;592;48.764;9.174;2023-03-22T10:55:27;3.63;;;1.67;;
1204;SDS011;592;48.764;9.174;2023-03-22T10:57:58;4.60;;;1.67;;
1204;SDS011;592;48.764;9.174;2023-03-22T11:00:47;6.63;;;1.70;;
1204;SDS011;592;48.764;9.174;2023-03-22T11:03:24;5.90;;;3.50;;
1204;SDS011;592;48.764;9.174;2023-03-22T11:05:57;6.70;;;1.97;;
1204;SDS011;592;48.764;9.174;2023-03-22T11:08:26;3.73;;;1.50;;
1204;SDS011;592;48.764;9.174;2023-03-22T11:10:54;3.00;;;1.30;;
1204;SDS011;592;48.764;9.174;2023-03-22T11:13:24;3.20;;;1.50;;
1204;SDS011;592;48.764;9.174;2023-03-22T11:15:52;6.50;;;1.63;;
1204;SDS011;592;48.764;9.174;2023-03-22T11:18:23;5.63;;;1.50;;
1204;SDS011;592;48.764;9.174;2023-03-22T11:20:55;5.23;;;1.47;;
1204;SDS011;592;48.764;9.174;2023-03-22T11:23:44;5.70;;;1.87;;
1204;SDS011;592;48.764;9.174;2023-03-22T11:26:25;6.90;;;2.15;;
1204;SDS011;592;48.764;9.174;2023-03-22T11:28:59;5.63;;;1.50;;
1204;SDS011;592;48.764;9.174;2023-03-22T11:31:46;5.50;;;2.30;;
1204;SDS011;592;48.764;9.174;2023-03-22T11:34:23;4.17;;;1.60;;
1204;SDS011;592;48.764;9.174;2023-03-22T11:37:06;3.90;;;1.60;;
1204;SDS011;592;48.764;9.174;2023-03-22T11:42:17;3.20;;;1.43;;
1204;SDS011;592;48.764;9.174;2023-03-22T11:44:45;4.40;;;1.30;;
1204;SDS011;592;48.764;9.174;2023-03-22T11:47:13;11.30;;;2.10;;
1204;SDS011;592;48.764;9.174;2023-03-22T11:49:42;5.30;;;1.63;;
1204;SDS011;592;48.764;9.174;2023-03-22T11:52:14;2.90;;;1.30;;
1204;SDS011;592;48.764;9.174;2023-03-22T11:54:43;3.43;;;1.50;;
1204;SDS011;592;48.764;9.174;2023-03-22T11:57:12;3.33;;;1.40;;
1204;SDS011;592;48.764;9.174;2023-03-22T11:59:47;4.57;;;1.40;;
1204;SDS011;592;48.764;9.174;2023-03-22T12:02:19;3.83;;;1.10;;
1204;SDS011;592;48.764;9.174;2023-03-22T12:04:49;4.73;;;1.63;;
1204;SDS011;592;48.764;9.174;2023-03-22T12:07:22;5.43;;;1.60;;
1204;SDS011;592;48.764;9.174;2023-03-22T12:09:56;3.80;;;1.37;;
1204;SDS011;592;48.764;9.174;2023-03-22T12:12:27;4.30;;;1.97;;
1204;SDS011;592;48.764;9.174;2023-03-22T12:14:56;6.43;;;1.67;;
1204;SDS011;592;48.764;9.174;2023-03-22T12:17:29;4.63;;;1.80;;
1204;SDS011;592;48.764;9.174;2023-03-22T12:20:02;3.00;;;1.50;;
1204;SDS011;592;48.764;9.174;2023-03-22T12:22:34;6.53;;;3.37;;
1204;SDS011;592;48.764;9.174;2023-03-22T12:25:08;3.93;;;2.40;;
1204;SDS011;592;48.764;9.174;2023-03-22T12:27:40;3.20;;;1.47;;
1204;SDS011;592;48.764;9.174;2023-03-22T12:30:11;3.27;;;1.23;;
1204;SDS011;592;48.764;9.174;2023-03-22T12:32:40;2.77;;;1.00;;
1204;SDS011;592;48.764;9.174;2023-03-22T12:35:10;3.00;;;1.30;;
1204;SDS011;592;48.764;9.174;2023-03-22T12:37:40;2.70;;;0.90;;
1204;SDS011;592;48.764;9.174;2023-03-22T12:40:14;2.90;;;1.23;;
1204;SDS011;592;48.764;9.174;2023-03-22T12:42:48;4.80;;;1.50;;
1204;SDS011;592;48.764;9.174;2023-03-22T12:45:22;11.13;;;1.70;;
1204;SDS011;592;48.764;9.174;2023-03-22T12:47:53;6.77;;;1.60;;
1204;SDS011;592;48.764;9.174;2023-03-22T12:50:24;4.70;;;1.80;;
1204;SDS011;592;48.764;9.174;2023-03-22T12:52:56;3.70;;;1.43;;
1204;SDS011;592;48.764;9.174;2023-03-22T12:55:26;20.13;;;1.90;;
1204;SDS011;592;48.764;9.174;2023-03-22T12:57:56;9.67;;;1.50;;
1204;SDS011;592;48.764;9.174;2023-03-22T13:00:25;3.00;;;1.20;;
1204;SDS011;592;48.764;9.174;2023-03-22T13:02:56;3.90;;;1.40;;
1204;SDS011;592;48.764;9.174;2023-03-22T13:05:25;2.93;;;1.30;;
1204;SDS011;592;48.764;9.174;2023-03-22T13:07:54;3.80;;;1.30;;
1204;SDS011;592;48.764;9.174;2023-03-22T13:10:39;3.47;;;1.30;;
1204;SDS011;592;48.764;9.174;2023-03-22T13:13:27;4.37;;;1.70;;
1204;SDS011;592;48.764;9.174;2023-03-22T13:16:16;3.87;;;1.50;;
1204;SDS011;592;48.764;9.174;2023-03-22T13:19:02;4.93;;;1.30;;
1204;SDS011;592;48.764;9.174;2023-03-22T13:21:50;3.20;;;1.30;;
1204;SDS011;592;48.764;9.174;2023-03-22T13:24:58;3.73;;;1.57;;
1204;SDS011;592;48.764;9.174;2023-03-22T13:27:39;4.80;;;1.80;;
1204;SDS011;592;48.764;9.174;2023-03-22T13:30:20;3.93;;;1.53;;
1204;SDS011;592;48.764;9.174;2023-03-22T13:32:50;3.10;;;1.43;;
1204;SDS011;592;48.764;9.174;2023-03-22T13:35:19;2.97;;;1.37;;
1204;SDS011;592;48.764;9.174;2023-03-22T13:37:49;3.10;;;1.13;;
1204;SDS011;592;48.764;9.174;2023-03-22T13:40:28;3.57;;;1.40;;
1204;SDS011;592;48.764;9.174;2023-03-22T13:43:07;4.33;;;1.40;;
1204;SDS011;592;48.764;9.174;2023-03-22T13:45:55;3.17;;;1.50;;
1204;SDS011;592;48.764;9.174;2023-03-22T13:48:39;4.40;;;1.50;;
1204;SDS011;592;48.764;9.174;2023-03-22T13:51:09;6.53;;;1.57;;
1204;SDS011;592;48.764;9.174;2023-03-22T13:53:39;3.50;;;1.23;;
1204;SDS011;592;48.764;9.174;2023-03-22T13:56:11;3.50;;;1.57;;
1204;SDS011;592;48.764;9.174;2023-03-22T13:58:48;3.70;;;1.07;;
1204;SDS011;592;48.764;9.174;2023-03-22T14:01:20;4.23;;;1.20;;
1204;SDS011;592;48.764;9.174;2023-03-22T14:03:53;3.43;;;1.53;;
1204;SDS011;592;48.764;9.174;2023-03-22T14:06:23;3.93;;;1.30;;
1204;SDS011;592;48.764;9.174;2023-03-22T14:08:54;3.50;;;1.40;;
1204;SDS011;592;48.764;9.174;2023-03-22T14:11:28;4.80;;;1.77;;
1204;SDS011;592;48.764;9.174;2023-03-22T14:14:02;4.70;;;1.70;;
1204;SDS011;592;48.764;9.174;2023-03-22T14:16:35;5.60;;;1.53;;
1204;SDS011;592;48.764;9.174;2023-03-22T14:19:07;7.00;;;1.60;;
1204;SDS011;592;48.764;9.174;2023-03-22T14:21:41;13.13;;;2.43;;
1204;SDS011;592;48.764;9.174;2023-03-22T14:24:12;4.23;;;1.67;;
1204;SDS011;592;48.764;9.174;2023-03-22T14:26:41;3.20;;;1.30;;
1204;SDS011;592;48.764;9.174;2023-03-22T14:29:13;3.27;;;1.33;;
1204;SDS011;592;48.764;9.174;2023-03-22T14:31:42;3.53;;;1.47;;
1204;SDS011;592;48.764;9.174;2023-03-22T14:34:11;4.67;;;1.93;;
1204;SDS011;592;48.764;9.174;2023-03-22T14:36:41;3.20;;;1.27;;
1204;SDS011;592;48.764;9.174;2023-03-22T14:39:11;5.07;;;1.40;;
1204;SDS011;592;48.764;9.174;2023-03-22T14:41:57;5.00;;;1.67;;
1204;SDS011;592;48.764;9.174;2023-03-22T14:44:26;5.73;;;1.40;;
1204;SDS011;592;48.764;9.174;2023-03-22T14:47:00;3.03;;;1.40;;
1204;SDS011;592;48.764;9.174;2023-03-22T14:49:29;7.93;;;1.73;;
1204;SDS011;592;48.764;9.174;2023-03-22T14:52:03;3.83;;;1.40;;
1204;SDS011;592;48.764;9.174;2023-03-22T14:54:30;5.23;;;1.30;;
1204;SDS011;592;48.764;9.174;2023-03-22T14:57:03;3.30;;;1.30;;
1204;SDS011;592;48.764;9.174;2023-03-22T14:59:31;3.43;;;1.37;;
1204;SDS011;592;48.764;9.174;2023-03-22T15:02:01;3.77;;;1.50;;
1204;SDS011;592;48.764;9.174;2023-03-22T15:04:34;4.67;;;1.50;;
1204;SDS011;592;48.764;9.174;2023-03-22T15:07:01;4.87;;;1.97;;
1204;SDS011;592;48.764;9.174;2023-03-22T15:09:29;3.63;;;1.20;;
1204;SDS011;592;48.764;9.174;2023-03-22T15:11:58;4.40;;;1.37;;
1204;SDS011;592;48.764;9.174;2023-03-22T15:14:27;4.70;;;1.60;;
1204;SDS011;592;48.764;9.174;2023-03-22T15:16:57;3.90;;;1.53;;
1204;SDS011;592;48.764;9.174;2023-03-22T15:19:28;3.30;;;1.33;;
1204;SDS011;592;48.764;9.174;2023-03-22T15:22:03;3.70;;;1.63;;
1204;SDS011;592;48.764;9.174;2023-03-22T15:24:57;4.23;;;1.40;;
1204;SDS011;592;48.764;9.174;2023-03-22T15:27:27;3.27;;;1.30;;
1204;SDS011;592;48.764;9.174;2023-03-22T15:29:55;2.90;;;1.10;;
1204;SDS011;592;48.764;9.174;2023-03-22T15:32:23;4.03;;;1.50;;
1204;SDS011;592;48.764;9.174;2023-03-22T15:34:53;4.40;;;1.53;;
1204;SDS011;592;48.764;9.174;2023-03-22T15:37:22;4.17;;;1.70;;
1204;SDS011;592;48.764;9.174;2023-03-22T15:39:53;3.50;;;1.47;;
1204;SDS011;592;48.764;9.174;2023-03-22T15:42:24;3.70;;;1.67;;
1204;SDS011;592;48.764;9.174;2023-03-22T15:44:56;4.40;;;1.80;;
1204;SDS011;592;48.764;9.174;2023-03-22T15:47:24;3.40;;;1.60;;
1204;SDS011;592;48.764;9.174;2023-03-22T15:49:55;4.07;;;1.60;;
1204;SDS011;592;48.764;9.174;2023-03-22T15:52:24;3.57;;;1.60;;
1204;SDS011;592;48.764;9.174;2023-03-22T15:54:56;4.77;;;1.50;;
1204;SDS011;592;48.764;9.174;2023-03-22T15:57:28;3.50;;;1.60;;
1204;SDS011;592;48.764;9.174;2023-03-22T16:00:05;4.40;;;1.60;;
1204;SDS011;592;48.764;9.174;2023-03-22T16:02:36;4.07;;;1.90;;